sensor_id;sensor_type;location;lat;lon;timestamp;pressure;altitude;pressure_sealevel;temperature;humidity
9187;BME280;7273;48.902;9.410;2023-02-28T00:02:10;98725.13;;;-0.76;nan
9187;BME280;7273;48.902;9.410;2023-02-28T00:04:35;98729.69;;;-0.70;nan
9187;BME280;7273;48.902;9.410;2023-02-28T00:07:00;98725.97;;;-0.76;nan
9187;BME280;7273;48.902;9.410;2023-02-28T00:09:26;98730.00;;;-0.80;nan
9187;BME280;7273;48.902;9.410;2023-02-28T00:11:51;98725.13;;;-0.76;nan
9187;BME280;7273;48.902;9.410;2023-02-28T00:14:17;98725.13;;;-0.76;nan
9187;BME280;7273;48.902;9.410;2023-02-28T00:16:42;98724.50;;;-0.78;nan
9187;BME280;7273;48.902;9.410;2023-02-28T00:19:07;98726.91;;;-0.83;nan
9187;BME280;7273;48.902;9.410;2023-02-28T00:21:33;98727.78;;;-0.76;nan
9187;BME280;7273;48.902;9.410;2023-02-28T00:23:58;98721.22;;;-0.80;nan
9187;BME280;7273;48.902;9.410;2023-02-28T00:26:23;98724.31;;;-0.77;nan
9187;BME280;7273;48.902;9.410;2023-02-28T00:28:49;98726.78;;;-0.75;nan
9187;BME280;7273;48.902;9.410;2023-02-28T00:31:17;98724.75;;;-0.73;nan
9187;BME280;7273;48.902;9.410;2023-02-28T00:33:43;98716.97;;;-0.75;nan
9187;BME280;7273;48.902;9.410;2023-02-28T00:36:10;98719.19;;;-0.78;nan
9187;BME280;7273;48.902;9.410;2023-02-28T00:38:37;98718.81;;;-0.75;nan
9187;BME280;7273;48.902;9.410;2023-02-28T00:41:03;98718.47;;;-0.72;nan
9187;BME280;7273;48.902;9.410;2023-02-28T00:43:36;98718.00;;;-0.76;nan
9187;BME280;7273;48.902;9.410;2023-02-28T00:46:02;98716.00;;;-0.74;nan
9187;BME280;7273;48.902;9.410;2023-02-28T00:48:28;98719.00;;;-0.77;nan
9187;BME280;7273;48.902;9.410;2023-02-28T00:50:54;98716.53;;;-0.78;nan
9187;BME280;7273;48.902;9.410;2023-02-28T00:53:20;98719.84;;;-0.76;nan
9187;BME280;7273;48.902;9.410;2023-02-28T00:55:48;98717.19;;;-0.76;nan
9187;BME280;7273;48.902;9.410;2023-02-28T00:58:14;98716.72;;;-0.80;nan
9187;BME280;7273;48.902;9.410;2023-02-28T01:00:39;98714.44;;;-0.83;nan
9187;BME280;7273;48.902;9.410;2023-02-28T01:03:05;98717.56;;;-0.79;nan
9187;BME280;7273;48.902;9.410;2023-02-28T01:05:30;98716.09;;;-0.82;nan
9187;BME280;7273;48.902;9.410;2023-02-28T01:07:55;98711.81;;;-0.83;nan
9187;BME280;7273;48.902;9.410;2023-02-28T01:10:21;98709.06;;;-0.89;nan
9187;BME280;7273;48.902;9.410;2023-02-28T01:12:46;98710.16;;;-0.84;nan
9187;BME280;7273;48.902;9.410;2023-02-28T01:15:11;98710.53;;;-0.87;nan
9187;BME280;7273;48.902;9.410;2023-02-28T01:17:37;98709.53;;;-0.86;nan
9187;BME280;7273;48.902;9.410;2023-02-28T01:20:02;98712.09;;;-0.92;nan
9187;BME280;7273;48.902;9.410;2023-02-28T01:22:28;98710.72;;;-0.88;nan
9187;BME280;7273;48.902;9.410;2023-02-28T01:24:53;98704.16;;;-0.92;nan
9187;BME280;7273;48.902;9.410;2023-02-28T01:27:19;98706.81;;;-0.92;nan
9187;BME280;7273;48.902;9.410;2023-02-28T01:29:44;98707.44;;;-0.90;nan
9187;BME280;7273;48.902;9.410;2023-02-28T01:32:10;98714.56;;;-0.91;nan
9187;BME280;7273;48.902;9.410;2023-02-28T01:34:35;98703.50;;;-0.94;nan
9187;BME280;7273;48.902;9.410;2023-02-28T01:37:00;98703.88;;;-0.97;nan
9187;BME280;7273;48.902;9.410;2023-02-28T01:39:26;98703.25;;;-0.99;nan
9187;BME280;7273;48.902;9.410;2023-02-28T01:41:51;98706.91;;;-1.00;nan
9187;BME280;7273;48.902;9.410;2023-02-28T01:47:20;98702.50;;;-0.93;nan
9187;BME280;7273;48.902;9.410;2023-02-28T01:49:46;98698.19;;;-0.94;nan
9187;BME280;7273;48.902;9.410;2023-02-28T01:52:14;98700.84;;;-0.94;nan
9187;BME280;7273;48.902;9.410;2023-02-28T01:54:44;98701.88;;;-0.95;nan
9187;BME280;7273;48.902;9.410;2023-02-28T01:57:14;98703.88;;;-0.97;nan
9187;BME280;7273;48.902;9.410;2023-02-28T01:59:47;98701.03;;;-0.96;nan
9187;BME280;7273;48.902;9.410;2023-02-28T02:02:17;98695.09;;;-0.98;nan
9187;BME280;7273;48.902;9.410;2023-02-28T02:07:29;98696.56;;;-0.95;nan
9187;BME280;7273;48.902;9.410;2023-02-28T02:10:04;98687.59;;;-0.94;nan
9187;BME280;7273;48.902;9.410;2023-02-28T02:17:39;98680.38;;;-1.00;nan
9187;BME280;7273;48.902;9.410;2023-02-28T02:36:51;98680.25;;;-0.92;nan
9187;BME280;7273;48.902;9.410;2023-02-28T02:41:52;98673.31;;;-0.93;nan
9187;BME280;7273;48.902;9.410;2023-02-28T02:44:24;98668.16;;;-0.95;nan
9187;BME280;7273;48.902;9.410;2023-02-28T02:46:57;98673.31;;;-0.93;nan
9187;BME280;7273;48.902;9.410;2023-02-28T02:49:36;98670.41;;;-0.98;nan
9187;BME280;7273;48.902;9.410;2023-02-28T02:52:07;98669.00;;;-0.94;nan
9187;BME280;7273;48.902;9.410;2023-02-28T02:54:36;98678.78;;;-0.95;nan
9187;BME280;7273;48.902;9.410;2023-02-28T02:57:09;98670.47;;;-0.92;nan
9187;BME280;7273;48.902;9.410;2023-02-28T02:59:38;98680.44;;;-0.94;nan
9187;BME280;7273;48.902;9.410;2023-02-28T03:02:07;98668.00;;;-0.93;nan
9187;BME280;7273;48.902;9.410;2023-02-28T03:04:43;98677.22;;;-0.89;nan
9187;BME280;7273;48.902;9.410;2023-02-28T03:07:10;98670.28;;;-0.90;nan
9187;BME280;7273;48.902;9.410;2023-02-28T03:09:35;98673.53;;;-0.88;nan
9187;BME280;7273;48.902;9.410;2023-02-28T03:12:02;98669.19;;;-0.96;nan
9187;BME280;7273;48.902;9.410;2023-02-28T03:17:35;98667.63;;;-0.90;nan
9187;BME280;7273;48.902;9.410;2023-02-28T03:20:17;98656.63;;;-0.87;nan
9187;BME280;7273;48.902;9.410;2023-02-28T03:22:56;98670.88;;;-0.88;nan
9187;BME280;7273;48.902;9.410;2023-02-28T03:26:06;98657.63;;;-0.88;nan
9187;BME280;7273;48.902;9.410;2023-02-28T03:33:58;98664.22;;;-0.84;nan
9187;BME280;7273;48.902;9.410;2023-02-28T03:36:37;98665.41;;;-0.87;nan
9187;BME280;7273;48.902;9.410;2023-02-28T03:39:11;98660.78;;;-0.78;nan
9187;BME280;7273;48.902;9.410;2023-02-28T03:41:53;98662.00;;;-0.81;nan
9187;BME280;7273;48.902;9.410;2023-02-28T03:44:26;98669.59;;;-0.78;nan
9187;BME280;7273;48.902;9.410;2023-02-28T03:47:08;98661.41;;;-0.76;nan
9187;BME280;7273;48.902;9.410;2023-02-28T03:49:41;98670.78;;;-0.80;nan
9187;BME280;7273;48.902;9.410;2023-02-28T03:52:08;98666.09;;;-0.78;nan
9187;BME280;7273;48.902;9.410;2023-02-28T03:54:41;98669.63;;;-0.71;nan
9187;BME280;7273;48.902;9.410;2023-02-28T03:57:23;98664.47;;;-0.79;nan
9187;BME280;7273;48.902;9.410;2023-02-28T04:00:05;98663.06;;;-0.75;nan
9187;BME280;7273;48.902;9.410;2023-02-28T04:02:32;98665.16;;;-0.71;nan
9187;BME280;7273;48.902;9.410;2023-02-28T04:04:57;98670.66;;;-0.72;nan
9187;BME280;7273;48.902;9.410;2023-02-28T04:07:22;98668.19;;;-0.74;nan
9187;BME280;7273;48.902;9.410;2023-02-28T04:09:48;98670.59;;;-0.79;nan
9187;BME280;7273;48.902;9.410;2023-02-28T04:12:13;98670.84;;;-0.74;nan
9187;BME280;7273;48.902;9.410;2023-02-28T04:14:39;98676.97;;;-0.73;nan
9187;BME280;7273;48.902;9.410;2023-02-28T04:17:04;98676.97;;;-0.73;nan
9187;BME280;7273;48.902;9.410;2023-02-28T04:19:30;98687.78;;;-0.75;nan
9187;BME280;7273;48.902;9.410;2023-02-28T04:21:55;98679.63;;;-0.73;nan
9187;BME280;7273;48.902;9.410;2023-02-28T04:24:25;98679.25;;;-0.70;nan
9187;BME280;7273;48.902;9.410;2023-02-28T04:26:53;98684.75;;;-0.72;nan
9187;BME280;7273;48.902;9.410;2023-02-28T04:29:22;98685.56;;;-0.71;nan
9187;BME280;7273;48.902;9.410;2023-02-28T04:31:48;98680.25;;;-0.71;nan
9187;BME280;7273;48.902;9.410;2023-02-28T04:34:14;98692.09;;;-0.74;nan
9187;BME280;7273;48.902;9.410;2023-02-28T04:36:40;98684.94;;;-0.73;nan
9187;BME280;7273;48.902;9.410;2023-02-28T04:39:07;98681.28;;;-0.72;nan
9187;BME280;7273;48.902;9.410;2023-02-28T04:41:33;98681.28;;;-0.72;nan
9187;BME280;7273;48.902;9.410;2023-02-28T04:43:58;98685.38;;;-0.70;nan
9187;BME280;7273;48.902;9.410;2023-02-28T04:46:24;98680.84;;;-0.76;nan
9187;BME280;7273;48.902;9.410;2023-02-28T04:48:49;98677.59;;;-0.71;nan
9187;BME280;7273;48.902;9.410;2023-02-28T04:51:17;98679.06;;;-0.69;nan
9187;BME280;7273;48.902;9.410;2023-02-28T04:53:43;98674.13;;;-0.72;nan
9187;BME280;7273;48.902;9.410;2023-02-28T04:56:14;98673.94;;;-0.70;nan
9187;BME280;7273;48.902;9.410;2023-02-28T04:58:40;98675.78;;;-0.71;nan
9187;BME280;7273;48.902;9.410;2023-02-28T05:01:26;98675.84;;;-0.64;nan
9187;BME280;7273;48.902;9.410;2023-02-28T05:03:53;98681.16;;;-0.64;nan
9187;BME280;7273;48.902;9.410;2023-02-28T05:06:20;98685.44;;;-0.63;nan
9187;BME280;7273;48.902;9.410;2023-02-28T05:08:46;98673.81;;;-0.62;nan
9187;BME280;7273;48.902;9.410;2023-02-28T05:11:20;98674.81;;;-0.63;nan
9187;BME280;7273;48.902;9.410;2023-02-28T05:13:47;98687.09;;;-0.62;nan
9187;BME280;7273;48.902;9.410;2023-02-28T05:16:13;98688.47;;;-0.66;nan
9187;BME280;7273;48.902;9.410;2023-02-28T05:18:39;98685.19;;;-0.68;nan
9187;BME280;7273;48.902;9.410;2023-02-28T05:21:05;98684.81;;;-0.65;nan
9187;BME280;7273;48.902;9.410;2023-02-28T05:23:30;98682.97;;;-0.65;nan
9187;BME280;7273;48.902;9.410;2023-02-28T05:25:56;98675.47;;;-0.61;nan
9187;BME280;7273;48.902;9.410;2023-02-28T05:28:21;98679.94;;;-0.62;nan
9187;BME280;7273;48.902;9.410;2023-02-28T05:30:47;98681.22;;;-0.58;nan
9187;BME280;7273;48.902;9.410;2023-02-28T05:33:13;98680.00;;;-0.55;nan
9187;BME280;7273;48.902;9.410;2023-02-28T05:35:40;98684.31;;;-0.54;nan
9187;BME280;7273;48.902;9.410;2023-02-28T05:38:06;98688.59;;;-0.53;nan
9187;BME280;7273;48.902;9.410;2023-02-28T05:40:31;98679.19;;;-0.56;nan
9187;BME280;7273;48.902;9.410;2023-02-28T05:42:57;98683.88;;;-0.58;nan
9187;BME280;7273;48.902;9.410;2023-02-28T05:45:22;98679.00;;;-0.54;nan
9187;BME280;7273;48.902;9.410;2023-02-28T05:47:48;98682.66;;;-0.55;nan
9187;BME280;7273;48.902;9.410;2023-02-28T05:50:13;98681.91;;;-0.49;nan
9187;BME280;7273;48.902;9.410;2023-02-28T05:52:38;98684.72;;;-0.51;nan
9187;BME280;7273;48.902;9.410;2023-02-28T05:55:04;98681.72;;;-0.48;nan
9187;BME280;7273;48.902;9.410;2023-02-28T05:57:29;98692.59;;;-0.43;nan
9187;BME280;7273;48.902;9.410;2023-02-28T05:59:55;98694.16;;;-0.48;nan
9187;BME280;7273;48.902;9.410;2023-02-28T06:02:20;98690.47;;;-0.47;nan
9187;BME280;7273;48.902;9.410;2023-02-28T06:04:46;98689.69;;;-0.48;nan
9187;BME280;7273;48.902;9.410;2023-02-28T06:07:11;98696.03;;;-0.42;nan
9187;BME280;7273;48.902;9.410;2023-02-28T06:09:37;98699.28;;;-0.47;nan
9187;BME280;7273;48.902;9.410;2023-02-28T06:12:04;98695.78;;;-0.47;nan
9187;BME280;7273;48.902;9.410;2023-02-28T06:14:31;98713.19;;;-0.45;nan
9187;BME280;7273;48.902;9.410;2023-02-28T06:16:58;98713.19;;;-0.45;nan
9187;BME280;7273;48.902;9.410;2023-02-28T06:19:23;98705.44;;;-0.46;nan
9187;BME280;7273;48.902;9.410;2023-02-28T06:21:51;98717.50;;;-0.44;nan
9187;BME280;7273;48.902;9.410;2023-02-28T06:24:21;98706.88;;;-0.44;nan
9187;BME280;7273;48.902;9.410;2023-02-28T06:26:48;98718.50;;;-0.45;nan
9187;BME280;7273;48.902;9.410;2023-02-28T06:29:14;98718.50;;;-0.45;nan
9187;BME280;7273;48.902;9.410;2023-02-28T06:31:42;98711.19;;;-0.43;nan
9187;BME280;7273;48.902;9.410;2023-02-28T06:34:09;98720.34;;;-0.45;nan
9187;BME280;7273;48.902;9.410;2023-02-28T06:36:36;98718.50;;;-0.45;nan
9187;BME280;7273;48.902;9.410;2023-02-28T06:39:02;98714.88;;;-0.37;nan
9187;BME280;7273;48.902;9.410;2023-02-28T06:41:27;98725.53;;;-0.37;nan
9187;BME280;7273;48.902;9.410;2023-02-28T06:43:53;98727.53;;;-0.39;nan
9187;BME280;7273;48.902;9.410;2023-02-28T06:46:19;98729.84;;;-0.36;nan
9187;BME280;7273;48.902;9.410;2023-02-28T06:48:45;98731.28;;;-0.34;nan
9187;BME280;7273;48.902;9.410;2023-02-28T06:51:15;98726.78;;;-0.33;nan
9187;BME280;7273;48.902;9.410;2023-02-28T06:53:42;98737.63;;;-0.35;nan
9187;BME280;7273;48.902;9.410;2023-02-28T06:56:10;98732.31;;;-0.35;nan
9187;BME280;7273;48.902;9.410;2023-02-28T06:58:36;98742.28;;;-0.37;nan
9187;BME280;7273;48.902;9.410;2023-02-28T07:01:03;98740.09;;;-0.33;nan
9187;BME280;7273;48.902;9.410;2023-02-28T07:03:29;98740.88;;;-0.33;nan
9187;BME280;7273;48.902;9.410;2023-02-28T07:05:54;98741.53;;;-0.31;nan
9187;BME280;7273;48.902;9.410;2023-02-28T07:08:22;98745.44;;;-0.27;nan
9187;BME280;7273;48.902;9.410;2023-02-28T07:10:52;98757.53;;;-0.24;nan
9187;BME280;7273;48.902;9.410;2023-02-28T07:13:17;98753.88;;;-0.23;nan
9187;BME280;7273;48.902;9.410;2023-02-28T07:15:42;98746.50;;;-0.21;nan
9187;BME280;7273;48.902;9.410;2023-02-28T07:18:08;98750.19;;;-0.22;nan
9187;BME280;7273;48.902;9.410;2023-02-28T07:20:33;98748.75;;;-0.25;nan
9187;BME280;7273;48.902;9.410;2023-02-28T07:22:58;98750.56;;;-0.25;nan
9187;BME280;7273;48.902;9.410;2023-02-28T07:25:28;98747.59;;;-0.16;nan
9187;BME280;7273;48.902;9.410;2023-02-28T07:27:54;98749.66;;;-0.11;nan
9187;BME280;7273;48.902;9.410;2023-02-28T07:30:20;98745.56;;;-0.14;nan
9187;BME280;7273;48.902;9.410;2023-02-28T07:32:45;98752.31;;;-0.11;nan
9187;BME280;7273;48.902;9.410;2023-02-28T07:35:11;98757.06;;;-0.07;nan
9187;BME280;7273;48.902;9.410;2023-02-28T07:37:36;98749.47;;;-0.10;nan
9187;BME280;7273;48.902;9.410;2023-02-28T07:40:07;98754.41;;;-0.07;nan
9187;BME280;7273;48.902;9.410;2023-02-28T07:42:34;98760.59;;;0.00;nan
9187;BME280;7273;48.902;9.410;2023-02-28T07:45:00;98763.38;;;-0.08;nan
9187;BME280;7273;48.902;9.410;2023-02-28T07:47:26;98759.97;;;-0.02;nan
9187;BME280;7273;48.902;9.410;2023-02-28T07:49:51;98765.91;;;0.00;nan
9187;BME280;7273;48.902;9.410;2023-02-28T07:52:16;98765.09;;;0.00;nan
9187;BME280;7273;48.902;9.410;2023-02-28T07:54:42;98769.66;;;0.06;nan
9187;BME280;7273;48.902;9.410;2023-02-28T07:57:07;98769.66;;;0.06;nan
9187;BME280;7273;48.902;9.410;2023-02-28T07:59:33;98777.22;;;0.09;nan
9187;BME280;7273;48.902;9.410;2023-02-28T08:01:58;98770.69;;;0.12;nan
9187;BME280;7273;48.902;9.410;2023-02-28T08:04:24;98775.22;;;0.11;nan
9187;BME280;7273;48.902;9.410;2023-02-28T08:06:49;98768.66;;;0.14;nan
9187;BME280;7273;48.902;9.410;2023-02-28T08:09:17;98773.75;;;0.09;nan
9187;BME280;7273;48.902;9.410;2023-02-28T08:11:42;98770.94;;;0.17;nan
9187;BME280;7273;48.902;9.410;2023-02-28T08:14:08;98764.03;;;0.22;nan
9187;BME280;7273;48.902;9.410;2023-02-28T08:16:33;98769.41;;;0.29;nan
9187;BME280;7273;48.902;9.410;2023-02-28T08:18:59;98770.38;;;0.21;nan
9187;BME280;7273;48.902;9.410;2023-02-28T08:21:24;98761.81;;;0.26;nan
9187;BME280;7273;48.902;9.410;2023-02-28T08:23:50;98764.09;;;0.29;nan
9187;BME280;7273;48.902;9.410;2023-02-28T08:26:17;98767.03;;;0.40;nan
9187;BME280;7273;48.902;9.410;2023-02-28T08:28:43;98774.03;;;0.48;nan
9187;BME280;7273;48.902;9.410;2023-02-28T08:31:11;98763.09;;;0.64;nan
9187;BME280;7273;48.902;9.410;2023-02-28T08:33:37;98764.63;;;0.86;nan
9187;BME280;7273;48.902;9.410;2023-02-28T08:36:04;98769.75;;;0.87;nan
9187;BME280;7273;48.902;9.410;2023-02-28T08:38:30;98770.72;;;1.20;nan
9187;BME280;7273;48.902;9.410;2023-02-28T08:41:05;98778.31;;;1.23;nan
9187;BME280;7273;48.902;9.410;2023-02-28T08:43:34;98771.84;;;1.46;nan
9187;BME280;7273;48.902;9.410;2023-02-28T08:46:00;98778.38;;;1.50;nan
9187;BME280;7273;48.902;9.410;2023-02-28T08:48:27;98772.88;;;1.71;nan
9187;BME280;7273;48.902;9.410;2023-02-28T08:53:25;98779.91;;;2.37;nan
9187;BME280;7273;48.902;9.410;2023-02-28T08:56:07;98777.13;;;2.96;nan
9187;BME280;7273;48.902;9.410;2023-02-28T08:58:34;98771.31;;;3.05;nan
9187;BME280;7273;48.902;9.410;2023-02-28T09:01:13;98773.16;;;3.86;nan
9187;BME280;7273;48.902;9.410;2023-02-28T09:03:40;98773.72;;;3.95;nan
9187;BME280;7273;48.902;9.410;2023-02-28T09:06:07;98770.16;;;4.01;nan
9187;BME280;7273;48.902;9.410;2023-02-28T09:08:33;98777.13;;;4.08;nan
9187;BME280;7273;48.902;9.410;2023-02-28T09:11:00;98772.78;;;3.83;nan
9187;BME280;7273;48.902;9.410;2023-02-28T09:13:26;98764.06;;;4.19;nan
9187;BME280;7273;48.902;9.410;2023-02-28T09:15:52;98764.84;;;4.86;nan
9187;BME280;7273;48.902;9.410;2023-02-28T09:18:17;98768.59;;;5.03;nan
9187;BME280;7273;48.902;9.410;2023-02-28T09:20:43;98769.47;;;4.79;nan
9187;BME280;7273;48.902;9.410;2023-02-28T09:23:11;98770.28;;;4.80;nan
9187;BME280;7273;48.902;9.410;2023-02-28T09:25:37;98772.19;;;4.55;nan
9187;BME280;7273;48.902;9.410;2023-02-28T09:28:03;98768.59;;;4.43;nan
9187;BME280;7273;48.902;9.410;2023-02-28T09:30:30;98775.38;;;4.21;nan
9187;BME280;7273;48.902;9.410;2023-02-28T09:32:55;98773.84;;;4.06;nan
9187;BME280;7273;48.902;9.410;2023-02-28T09:35:22;98770.22;;;3.94;nan
9187;BME280;7273;48.902;9.410;2023-02-28T09:37:50;98766.09;;;3.67;nan
9187;BME280;7273;48.902;9.410;2023-02-28T09:40:18;98774.53;;;3.64;nan
9187;BME280;7273;48.902;9.410;2023-02-28T09:42:46;98775.41;;;3.58;nan
9187;BME280;7273;48.902;9.410;2023-02-28T09:45:26;98773.28;;;3.67;nan
9187;BME280;7273;48.902;9.410;2023-02-28T09:47:54;98773.50;;;3.96;nan
9187;BME280;7273;48.902;9.410;2023-02-28T09:50:38;98782.53;;;3.71;nan
9187;BME280;7273;48.902;9.410;2023-02-28T09:53:26;98785.25;;;3.64;nan
9187;BME280;7273;48.902;9.410;2023-02-28T09:56:02;98783.31;;;3.40;nan
9187;BME280;7273;48.902;9.410;2023-02-28T09:58:40;98787.88;;;3.33;nan
9187;BME280;7273;48.902;9.410;2023-02-28T10:06:58;98799.50;;;3.08;nan
9187;BME280;7273;48.902;9.410;2023-02-28T10:09:30;98806.06;;;3.05;nan
9187;BME280;7273;48.902;9.410;2023-02-28T10:12:04;98798.47;;;3.02;nan
9187;BME280;7273;48.902;9.410;2023-02-28T10:14:33;98791.88;;;2.98;nan
9187;BME280;7273;48.902;9.410;2023-02-28T10:17:05;98795.59;;;2.97;nan
9187;BME280;7273;48.902;9.410;2023-02-28T10:19:44;98800.25;;;3.21;nan
9187;BME280;7273;48.902;9.410;2023-02-28T10:22:16;98799.63;;;3.19;nan
9187;BME280;7273;48.902;9.410;2023-02-28T10:24:50;98813.31;;;3.42;nan
9187;BME280;7273;48.902;9.410;2023-02-28T10:27:29;98799.69;;;3.50;nan
9187;BME280;7273;48.902;9.410;2023-02-28T10:30:00;98799.03;;;4.24;nan
9187;BME280;7273;48.902;9.410;2023-02-28T10:32:32;98793.75;;;4.84;nan
9187;BME280;7273;48.902;9.410;2023-02-28T10:35:14;98795.59;;;5.38;nan
9187;BME280;7273;48.902;9.410;2023-02-28T10:37:42;98797.88;;;5.53;nan
9187;BME280;7273;48.902;9.410;2023-02-28T10:43:13;98792.94;;;5.68;nan
9187;BME280;7273;48.902;9.410;2023-02-28T10:45:55;98794.41;;;5.82;nan
9187;BME280;7273;48.902;9.410;2023-02-28T10:56:15;98793.41;;;5.65;nan
9187;BME280;7273;48.902;9.410;2023-02-28T11:07:22;98779.38;;;6.68;nan
9187;BME280;7273;48.902;9.410;2023-02-28T11:09:50;98777.72;;;7.25;nan
9187;BME280;7273;48.902;9.410;2023-02-28T11:12:29;98780.38;;;7.92;nan
9187;BME280;7273;48.902;9.410;2023-02-28T11:15:02;98773.38;;;8.36;nan
9187;BME280;7273;48.902;9.410;2023-02-28T11:17:33;98775.50;;;8.34;nan
9187;BME280;7273;48.902;9.410;2023-02-28T11:20:04;98775.69;;;8.82;nan
9187;BME280;7273;48.902;9.410;2023-02-28T11:22:36;98766.22;;;9.39;nan
9187;BME280;7273;48.902;9.410;2023-02-28T11:25:21;98765.47;;;9.66;nan
9187;BME280;7273;48.902;9.410;2023-02-28T11:27:48;98767.88;;;10.15;nan
9187;BME280;7273;48.902;9.410;2023-02-28T11:32:55;98771.56;;;10.31;nan
9187;BME280;7273;48.902;9.410;2023-02-28T11:35:33;98769.56;;;9.95;nan
9187;BME280;7273;48.902;9.410;2023-02-28T11:37:59;98773.41;;;9.50;nan
9187;BME280;7273;48.902;9.410;2023-02-28T11:46:18;98771.47;;;8.53;nan
9187;BME280;7273;48.902;9.410;2023-02-28T11:59:53;98761.72;;;8.19;nan
9187;BME280;7273;48.902;9.410;2023-02-28T12:11:10;98756.06;;;8.04;nan
9187;BME280;7273;48.902;9.410;2023-02-28T12:13:46;98754.56;;;7.80;nan
9187;BME280;7273;48.902;9.410;2023-02-28T12:24:42;98744.59;;;7.64;nan
9187;BME280;7273;48.902;9.410;2023-02-28T12:27:13;98751.72;;;7.58;nan
9187;BME280;7273;48.902;9.410;2023-02-28T12:29:46;98746.22;;;7.65;nan
9187;BME280;7273;48.902;9.410;2023-02-28T12:32:20;98744.50;;;7.59;nan
9187;BME280;7273;48.902;9.410;2023-02-28T12:37:38;98737.09;;;7.82;nan
9187;BME280;7273;48.902;9.410;2023-02-28T12:40:19;98732.84;;;7.70;nan
9187;BME280;7273;48.902;9.410;2023-02-28T12:43:02;98723.16;;;7.69;nan
9187;BME280;7273;48.902;9.410;2023-02-28T12:45:42;98727.38;;;7.65;nan
9187;BME280;7273;48.902;9.410;2023-02-28T12:48:14;98727.94;;;7.39;nan
9187;BME280;7273;48.902;9.410;2023-02-28T12:50:41;98723.69;;;7.54;nan
9187;BME280;7273;48.902;9.410;2023-02-28T13:09:40;98708.97;;;7.45;nan
9187;BME280;7273;48.902;9.410;2023-02-28T13:12:13;98703.34;;;7.47;nan
9187;BME280;7273;48.902;9.410;2023-02-28T13:14:40;98704.66;;;7.44;nan
9187;BME280;7273;48.902;9.410;2023-02-28T13:19:40;98718.47;;;7.64;nan
9187;BME280;7273;48.902;9.410;2023-02-28T13:22:17;98715.59;;;7.54;nan
9187;BME280;7273;48.902;9.410;2023-02-28T13:24:46;98711.56;;;7.40;nan
9187;BME280;7273;48.902;9.410;2023-02-28T13:29:42;98711.59;;;7.29;nan
9187;BME280;7273;48.902;9.410;2023-02-28T13:34:39;98698.44;;;7.44;nan
9187;BME280;7273;48.902;9.410;2023-02-28T13:47:36;98715.28;;;7.11;nan
9187;BME280;7273;48.902;9.410;2023-02-28T14:01:38;98709.19;;;7.16;nan
9187;BME280;7273;48.902;9.410;2023-02-28T14:04:35;98708.56;;;7.25;nan
9187;BME280;7273;48.902;9.410;2023-02-28T14:07:06;98716.50;;;7.04;nan
9187;BME280;7273;48.902;9.410;2023-02-28T14:09:35;98716.53;;;7.20;nan
9187;BME280;7273;48.902;9.410;2023-02-28T14:17:54;98711.53;;;7.12;nan
9187;BME280;7273;48.902;9.410;2023-02-28T14:20:22;98715.03;;;7.13;nan
9187;BME280;7273;48.902;9.410;2023-02-28T14:25:47;98714.25;;;7.01;nan
9187;BME280;7273;48.902;9.410;2023-02-28T14:31:28;98707.59;;;7.03;nan
9187;BME280;7273;48.902;9.410;2023-02-28T14:36:41;98716.50;;;6.92;nan
9187;BME280;7273;48.902;9.410;2023-02-28T14:39:12;98711.00;;;6.99;nan
9187;BME280;7273;48.902;9.410;2023-02-28T14:41:40;98719.31;;;6.97;nan
9187;BME280;7273;48.902;9.410;2023-02-28T14:46:48;98718.38;;;6.92;nan
9187;BME280;7273;48.902;9.410;2023-02-28T14:52:03;98720.38;;;6.73;nan
9187;BME280;7273;48.902;9.410;2023-02-28T14:54:30;98725.88;;;6.66;nan
9187;BME280;7273;48.902;9.410;2023-02-28T14:56:56;98725.19;;;6.59;nan
9187;BME280;7273;48.902;9.410;2023-02-28T14:59:31;98720.97;;;6.52;nan
9187;BME280;7273;48.902;9.410;2023-02-28T15:04:41;98725.44;;;6.46;nan
9187;BME280;7273;48.902;9.410;2023-02-28T15:07:13;98732.66;;;6.34;nan
9187;BME280;7273;48.902;9.410;2023-02-28T15:09:39;98727.66;;;6.26;nan
9187;BME280;7273;48.902;9.410;2023-02-28T15:12:05;98722.28;;;6.26;nan
9187;BME280;7273;48.902;9.410;2023-02-28T15:14:31;98735.22;;;6.29;nan
9187;BME280;7273;48.902;9.410;2023-02-28T15:17:07;98732.06;;;6.32;nan
9187;BME280;7273;48.902;9.410;2023-02-28T15:19:36;98737.09;;;6.29;nan
9187;BME280;7273;48.902;9.410;2023-02-28T15:22:06;98727.66;;;6.38;nan
9187;BME280;7273;48.902;9.410;2023-02-28T15:27:09;98734.16;;;6.19;nan
9187;BME280;7273;48.902;9.410;2023-02-28T15:29:46;98732.91;;;6.21;nan
9187;BME280;7273;48.902;9.410;2023-02-28T15:32:40;98737.66;;;6.19;nan
9187;BME280;7273;48.902;9.410;2023-02-28T15:40:32;98735.19;;;6.06;nan
9187;BME280;7273;48.902;9.410;2023-02-28T15:45:45;98739.06;;;5.99;nan
9187;BME280;7273;48.902;9.410;2023-02-28T15:48:19;98734.03;;;5.91;nan
9187;BME280;7273;48.902;9.410;2023-02-28T15:50:56;98733.53;;;5.82;nan
9187;BME280;7273;48.902;9.410;2023-02-28T15:53:29;98731.84;;;5.81;nan
9187;BME280;7273;48.902;9.410;2023-02-28T15:56:03;98734.28;;;5.71;nan
9187;BME280;7273;48.902;9.410;2023-02-28T15:58:30;98731.81;;;5.70;nan
9187;BME280;7273;48.902;9.410;2023-02-28T16:01:08;98741.34;;;5.54;nan
9187;BME280;7273;48.902;9.410;2023-02-28T16:03:48;98735.00;;;5.48;nan
9187;BME280;7273;48.902;9.410;2023-02-28T16:08:42;98740.38;;;5.48;nan
9187;BME280;7273;48.902;9.410;2023-02-28T16:11:10;98734.06;;;5.43;nan
9187;BME280;7273;48.902;9.410;2023-02-28T16:13:36;98739.50;;;5.36;nan
9187;BME280;7273;48.902;9.410;2023-02-28T16:16:01;98741.97;;;5.38;nan
9187;BME280;7273;48.902;9.410;2023-02-28T16:18:27;98734.59;;;5.33;nan
9187;BME280;7273;48.902;9.410;2023-02-28T16:20:53;98743.75;;;5.26;nan
9187;BME280;7273;48.902;9.410;2023-02-28T16:23:19;98750.03;;;5.20;nan
9187;BME280;7273;48.902;9.410;2023-02-28T16:25:44;98745.44;;;5.09;nan
9187;BME280;7273;48.902;9.410;2023-02-28T16:28:26;98740.56;;;4.99;nan
9187;BME280;7273;48.902;9.410;2023-02-28T16:30:55;98751.53;;;4.98;nan
9187;BME280;7273;48.902;9.410;2023-02-28T16:33:20;98755.56;;;4.89;nan
9187;BME280;7273;48.902;9.410;2023-02-28T16:35:45;98755.56;;;4.89;nan
9187;BME280;7273;48.902;9.410;2023-02-28T16:38:11;98762.84;;;4.82;nan
9187;BME280;7273;48.902;9.410;2023-02-28T16:40:36;98759.56;;;4.80;nan
9187;BME280;7273;48.902;9.410;2023-02-28T16:43:07;98769.53;;;4.73;nan
9187;BME280;7273;48.902;9.410;2023-02-28T16:45:35;98768.19;;;4.64;nan
9187;BME280;7273;48.902;9.410;2023-02-28T16:48:00;98764.31;;;4.60;nan
9187;BME280;7273;48.902;9.410;2023-02-28T16:50:29;98769.06;;;4.58;nan
9187;BME280;7273;48.902;9.410;2023-02-28T16:52:55;98772.19;;;4.55;nan
9187;BME280;7273;48.902;9.410;2023-02-28T16:55:22;98767.41;;;4.57;nan
9187;BME280;7273;48.902;9.410;2023-02-28T16:57:52;98784.81;;;4.48;nan
9187;BME280;7273;48.902;9.410;2023-02-28T17:00:18;98778.47;;;4.42;nan
9187;BME280;7273;48.902;9.410;2023-02-28T17:02:44;98777.91;;;4.40;nan
9187;BME280;7273;48.902;9.410;2023-02-28T17:05:13;98785.94;;;4.40;nan
9187;BME280;7273;48.902;9.410;2023-02-28T17:07:40;98787.00;;;4.33;nan